Terminal Aerodrome Forecast
Issued by NWS Louisville, KY

Home | Current Version | Previous Version | Text Only | Print | Product List | Glossary On
Versions: 1 2 3 4 5 6 7 8 9 10 11 12 13 14 15 16
019
FTUS43 KLMK 150521
TAFSDF
TAF
KSDF 150521Z 1506/1612 19011KT P6SM FEW060 FEW200
     FM151000 20014G18KT P6SM BKN060 BKN200
     FM151400 23015G22KT P6SM -SHRA SCT020 BKN025
     FM151700 28016G27KT P6SM OVC022 PROB30 1518/1520 4SM -SHRA
      BKN015
     FM152100 30015KT P6SM SCT020 BKN040
     FM160200 33008KT P6SM FEW040 SCT250=

USA.gov is the U.S. government's official web portal to all federal, state and local government web resources and services.